DEN weather

Denver International Airport
Denver, Colorado, United States

Public forecast

Using degrees Fahrenheit for public forecast. Weather courtesy of forecast.io.

METAR (pilot weather report)

Retrieved 2019/04/21 10:53 UTC (50 minutes ago):

KDEN 211053Z 34018KT 10SM FEW060 FEW070 BKN095 14/01 A2980 RMK AO2 PK WND 36026/1012 RAB11E32 SLP019 P0000 T01440006

TAF (pilot weather forecast)

Retrieved 2019/04/21 06:42 UTC (5 hours ago):

TAF KDEN 210541Z 2106/2212 31010KT P6SM SCT110 BKN200 FM211100 24010KT P6SM SCT090 BKN150 FM211800 03012KT P6SM SCT070 BKN120 FM212000 03014G24KT P6SM BKN060 OVC100 TEMPO 2120/2123 -SHRA BKN050 FM212300 35018G28KT P6SM -SHRA SCT015 BKN035 PROB30 2123/2203 -TSRA BKN025CB FM220300 01014G22KT P6SM -SHRA BKN015 OVC025 FM220700 01012KT 5SM -SHRA BR BKN009 OVC018